Time;durP1;ratioP1;P1;durP2;ratioP2;P2;SDS_P1;SDS_P2;PMS_P1;PMS_P2;Temp;Humidity;BMP_temperature;BMP_pressure;BME280_temperature;BME280_humidity;BME280_pressure;Samples;Min_cycle;Max_cycle;Signal;HPM_P1;HPM_P2
2021/07/12 04:01:03;;;;;;;1.40;1.30;;;12.30;96.30;;;;;;5731370;22;20974;-83
2021/07/12 04:03:29;;;;;;;10.73;4.73;;;12.40;96.30;;;;;;5035220;28;20576;-81
2021/07/12 04:05:54;;;;;;;3.93;1.30;;;12.50;96.30;;;;;;5056801;28;20464;-83
2021/07/12 04:08:20;;;;;;;6.00;1.40;;;12.50;96.30;;;;;;5052483;28;20226;-80
2021/07/12 04:10:45;;;;;;;4.60;1.40;;;12.60;96.30;;;;;;5035042;28;20207;-80
2021/07/12 04:13:13;;;;;;;11.80;1.30;;;12.70;96.30;;;;;;5046005;28;20698;-80
2021/07/12 04:15:39;;;;;;;1.60;1.50;;;12.80;96.30;;;;;;5040384;28;20238;-80
2021/07/12 04:18:05;;;;;;;3.83;1.37;;;12.90;96.30;;;;;;5032005;28;20407;-80
2021/07/12 04:20:31;;;;;;;3.87;1.57;;;13.00;96.30;;;;;;5015160;28;20199;-80
2021/07/12 04:22:59;;;;;;;1.60;1.40;;;13.30;96.30;;;;;;5032838;28;20415;-80
2021/07/12 04:25:25;;;;;;;4.63;1.37;;;13.90;96.30;;;;;;5014735;28;20469;-81
2021/07/12 04:27:50;;;;;;;3.43;1.40;;;14.60;96.30;;;;;;5032428;28;20775;-80
2021/07/12 04:30:16;;;;;;;2.63;1.10;;;15.30;96.30;;;;;;5045160;28;20192;-81
2021/07/12 04:32:42;;;;;;;1.97;1.00;;;15.40;96.30;;;;;;5050994;28;20179;-81
2021/07/12 04:35:08;;;;;;;2.43;1.27;;;15.60;96.30;;;;;;5039317;28;20475;-80
2021/07/12 04:37:34;;;;;;;2.87;1.20;;;15.50;96.30;;;;;;5053910;28;20172;-81
2021/07/12 04:39:59;;;;;;;3.23;1.03;;;15.10;96.30;;;;;;5056677;28;20179;-80
2021/07/12 04:42:25;;;;;;;2.33;1.13;;;14.90;96.30;;;;;;5055430;28;20206;-80
2021/07/12 04:44:50;;;;;;;2.47;1.20;;;14.60;96.30;;;;;;5056343;28;20654;-80
2021/07/12 04:47:16;;;;;;;1.97;1.00;;;14.40;96.30;;;;;;5037936;28;20255;-80
2021/07/12 04:49:41;;;;;;;1.97;1.37;;;14.20;96.30;;;;;;5056224;28;20615;-80
2021/07/12 04:52:07;;;;;;;1.37;1.00;;;14.00;96.30;;;;;;5056288;28;20242;-80
2021/07/12 04:54:33;;;;;;;1.30;1.20;;;13.90;96.30;;;;;;5051879;28;20179;-80
2021/07/12 04:56:58;;;;;;;1.13;1.03;;;14.20;96.30;;;;;;5041397;28;20192;-80
2021/07/12 04:59:26;;;;;;;4.00;1.37;;;14.30;96.30;;;;;;5037040;28;20220;-80
2021/07/12 05:01:52;;;;;;;6.40;1.30;;;14.40;96.30;;;;;;5035987;28;20212;-80
2021/07/12 05:04:18;;;;;;;5.37;1.10;;;14.40;96.30;;;;;;5036888;28;20411;-80
2021/07/12 05:06:43;;;;;;;1.23;1.10;;;14.80;96.30;;;;;;5039951;28;20172;-80
2021/07/12 05:09:09;;;;;;;4.50;1.40;;;15.70;96.30;;;;;;5044452;28;20254;-80
2021/07/12 05:11:34;;;;;;;1.87;1.20;;;17.30;96.30;;;;;;5040961;28;20216;-80
2021/07/12 05:14:01;;;;;;;3.10;1.10;;;17.80;96.30;;;;;;5040701;28;20189;-80
2021/07/12 05:16:27;;;;;;;4.90;1.10;;;19.20;96.30;;;;;;5036927;28;20200;-80
2021/07/12 05:18:52;;;;;;;3.13;1.10;;;21.20;96.30;;;;;;5036610;28;20438;-80
2021/07/12 05:21:18;;;;;;;3.80;1.13;;;22.00;96.30;;;;;;5037219;28;20521;-80
2021/07/12 05:23:44;;;;;;;2.13;0.90;;;23.20;95.10;;;;;;5046714;28;20177;-80
2021/07/12 05:26:12;;;;;;;3.13;0.90;;;23.80;93.60;;;;;;5051193;28;20187;-81
2021/07/12 05:28:38;;;;;;;3.37;0.97;;;23.40;94.60;;;;;;5046206;28;20183;-81
2021/07/12 05:31:06;;;;;;;4.50;1.40;;;24.20;92.20;;;;;;5023981;28;20462;-80
2021/07/12 05:33:32;;;;;;;1.43;0.87;;;24.40;90.90;;;;;;5045157;28;20230;-80
2021/07/12 05:35:58;;;;;;;9.73;1.10;;;25.20;89.20;;;;;;5020967;28;20410;-84
2021/07/12 05:38:24;;;;;;;5.07;1.63;;;25.40;88.20;;;;;;5028134;28;20645;-83
2021/07/12 05:40:49;;;;;;;3.83;0.80;;;25.90;87.70;;;;;;5014270;28;20202;-83
2021/07/12 05:43:15;;;;;;;11.90;1.00;;;25.90;87.00;;;;;;5016621;28;20207;-84
2021/07/12 05:45:40;;;;;;;4.23;1.07;;;26.40;86.20;;;;;;5038457;28;20182;-84
2021/07/12 05:48:07;;;;;;;1.30;1.00;;;27.10;82.30;;;;;;5025939;28;20218;-83
2021/07/12 05:50:32;;;;;;;2.80;0.90;;;27.20;83.00;;;;;;5027253;28;20207;-84
2021/07/12 05:52:58;;;;;;;1.23;1.10;;;27.20;82.20;;;;;;5055016;28;20424;-84
2021/07/12 05:55:24;;;;;;;2.70;1.13;;;27.20;82.90;;;;;;5053512;28;20182;-84
2021/07/12 05:57:49;;;;;;;0.97;0.80;;;26.40;83.60;;;;;;5052880;28;20183;-84
2021/07/12 06:00:15;;;;;;;1.10;0.90;;;25.10;88.30;;;;;;5029241;28;20530;-84
2021/07/12 06:02:42;;;;;;;3.13;1.00;;;23.70;93.50;;;;;;5049133;28;20167;-84
2021/07/12 06:05:10;;;;;;;2.27;0.97;;;24.20;90.60;;;;;;5031994;28;20202;-83
2021/07/12 06:07:36;;;;;;;9.03;1.30;;;23.50;94.40;;;;;;5036544;28;20406;-84
2021/07/12 06:10:03;;;;;;;2.20;1.07;;;23.70;93.50;;;;;;5050364;28;20516;-84
2021/07/12 06:12:29;;;;;;;2.20;1.10;;;25.60;88.80;;;;;;5036444;28;20705;-83
2021/07/12 06:14:54;;;;;;;2.60;1.20;;;27.00;83.40;;;;;;5035002;28;20521;-84
2021/07/12 06:17:20;;;;;;;2.80;1.23;;;27.60;81.60;;;;;;5021822;28;20175;-84
2021/07/12 06:19:45;;;;;;;1.63;1.00;;;27.50;81.50;;;;;;5017520;28;20183;-83
2021/07/12 06:22:11;;;;;;;3.37;1.10;;;26.60;85.10;;;;;;5044845;28;20234;-82
2021/07/12 06:24:37;;;;;;;3.73;1.23;;;26.60;86.90;;;;;;5015856;28;20270;-84
2021/07/12 06:27:02;;;;;;;2.17;1.30;;;27.40;82.80;;;;;;5043538;28;20183;-84
2021/07/12 06:29:28;;;;;;;1.80;1.20;;;28.20;80.20;;;;;;5019273;28;20184;-83
2021/07/12 06:31:55;;;;;;;5.13;1.20;;;28.80;78.80;;;;;;5017337;28;20234;-82
2021/07/12 06:34:21;;;;;;;8.50;1.73;;;26.30;85.10;;;;;;5015148;28;20182;-84
2021/07/12 06:36:47;;;;;;;2.07;1.23;;;27.80;82.10;;;;;;5043446;28;20433;-83
2021/07/12 06:39:13;;;;;;;1.30;1.03;;;27.30;83.50;;;;;;5045214;28;20409;-83
2021/07/12 06:41:38;;;;;;;1.00;0.90;;;27.80;85.70;;;;;;5052619;28;20682;-83
2021/07/12 06:44:04;;;;;;;1.60;0.90;;;28.80;80.00;;;;;;5044539;28;20184;-84
2021/07/12 06:46:30;;;;;;;1.67;1.00;;;29.40;79.70;;;;;;5032646;28;20531;-83
2021/07/12 06:48:55;;;;;;;1.30;0.90;;;29.80;79.10;;;;;;5033638;28;20199;-84
2021/07/12 06:51:21;;;;;;;3.00;1.20;;;30.00;77.30;;;;;;5017940;28;20277;-84
2021/07/12 06:53:46;;;;;;;1.60;1.00;;;29.40;77.60;;;;;;5042260;28;20597;-84
2021/07/12 06:56:13;;;;;;;1.27;1.10;;;28.80;78.20;;;;;;5034380;28;20261;-84
2021/07/12 06:58:39;;;;;;;1.40;1.03;;;28.60;75.80;;;;;;5051446;28;20178;-84
2021/07/12 07:01:05;;;;;;;1.37;1.10;;;27.60;82.90;;;;;;5030351;28;20464;-84
2021/07/12 07:03:30;;;;;;;2.20;1.10;;;28.00;84.10;;;;;;5034168;28;20790;-83
2021/07/12 07:05:56;;;;;;;1.00;0.87;;;28.80;81.50;;;;;;5034055;28;20195;-84
2021/07/12 07:08:21;;;;;;;3.20;1.10;;;28.40;80.30;;;;;;5046885;28;20178;-84
2021/07/12 07:10:47;;;;;;;1.20;1.00;;;27.80;80.70;;;;;;5037113;28;20223;-79
2021/07/12 07:13:13;;;;;;;1.20;0.90;;;28.20;82.10;;;;;;5042905;28;20190;-79
2021/07/12 07:15:38;;;;;;;1.20;1.10;;;28.70;80.30;;;;;;5038533;28;20467;-80
2021/07/12 07:18:04;;;;;;;1.10;1.00;;;29.10;81.40;;;;;;5037106;28;20192;-79
2021/07/12 07:20:29;;;;;;;1.30;1.10;;;29.60;79.10;;;;;;5021228;28;20200;-79
2021/07/12 07:22:55;;;;;;;1.20;1.00;;;30.00;78.90;;;;;;5040117;28;20171;-79
2021/07/12 07:25:20;;;;;;;1.50;1.10;;;28.70;79.10;;;;;;5034951;28;20170;-79
2021/07/12 07:27:46;;;;;;;1.97;0.90;;;27.90;82.20;;;;;;5057986;28;20211;-79
2021/07/12 07:30:13;;;;;;;1.67;1.00;;;27.10;82.30;;;;;;5064568;28;20190;-79
2021/07/12 07:32:39;;;;;;;2.10;0.90;;;26.10;85.70;;;;;;5048876;28;20179;-79
2021/07/12 07:35:06;;;;;;;2.27;1.10;;;25.40;86.80;;;;;;5037067;28;20436;-80
2021/07/12 07:37:32;;;;;;;1.20;1.00;;;25.80;92.10;;;;;;5029844;28;20418;-80
2021/07/12 07:39:58;;;;;;;1.27;0.80;;;27.30;87.70;;;;;;5053975;28;20457;-79
2021/07/12 07:42:24;;;;;;;1.37;0.90;;;28.80;83.60;;;;;;5045358;28;20360;-80
2021/07/12 07:44:50;;;;;;;1.00;0.90;;;29.60;80.60;;;;;;5053184;28;20384;-80
2021/07/12 07:47:16;;;;;;;1.50;0.90;;;30.10;79.00;;;;;;5055825;28;20167;-80
2021/07/12 07:49:41;;;;;;;0.90;0.70;;;30.70;77.10;;;;;;5057232;28;20413;-80
2021/07/12 07:52:07;;;;;;;1.87;1.10;;;31.10;73.50;;;;;;5052930;28;20698;-80
2021/07/12 07:54:33;;;;;;;1.00;0.90;;;30.90;71.50;;;;;;5038346;28;20182;-80
2021/07/12 07:56:58;;;;;;;1.00;0.90;;;31.50;73.00;;;;;;5055523;28;20644;-80
2021/07/12 07:59:24;;;;;;;1.10;0.80;;;31.50;74.10;;;;;;5056838;28;20171;-80
2021/07/12 08:01:50;;;;;;;0.97;0.87;;;31.80;74.40;;;;;;5044766;28;20218;-80
2021/07/12 08:04:15;;;;;;;0.90;0.70;;;28.80;70.60;;;;;;5051776;28;20214;-80
2021/07/12 08:06:41;;;;;;;1.10;0.83;;;28.10;75.10;;;;;;5055961;28;20206;-80
2021/07/12 08:09:06;;;;;;;1.00;0.80;;;29.60;73.40;;;;;;5043469;28;20198;-80
2021/07/12 08:11:33;;;;;;;1.00;0.80;;;29.80;78.50;;;;;;5060135;28;20674;-80
2021/07/12 08:13:58;;;;;;;1.63;0.80;;;30.40;79.10;;;;;;5046689;28;20218;-80
2021/07/12 08:16:24;;;;;;;1.40;0.80;;;31.20;73.50;;;;;;5044850;28;20438;-80
2021/07/12 08:18:49;;;;;;;4.00;0.90;;;31.80;69.80;;;;;;5036842;28;20216;-81
2021/07/12 08:21:15;;;;;;;1.20;0.83;;;31.80;69.80;;;;;;5037173;28;20188;-81
2021/07/12 08:23:41;;;;;;;2.23;0.80;;;30.30;74.20;;;;;;5053184;28;20183;-80
2021/07/12 08:26:09;;;;;;;1.23;1.10;;;29.40;75.60;;;;;;5044240;28;20175;-80
2021/07/12 08:28:35;;;;;;;1.57;1.20;;;28.10;73.90;;;;;;5038729;28;20424;-80
2021/07/12 08:31:00;;;;;;;1.10;0.90;;;27.20;78.80;;;;;;5060032;28;20461;-80
2021/07/12 08:33:26;;;;;;;4.67;1.10;;;27.80;81.10;;;;;;5059635;28;20183;-79
2021/07/12 08:35:51;;;;;;;1.10;1.00;;;28.50;77.40;;;;;;5027862;28;20190;-80
2021/07/12 08:38:17;;;;;;;2.90;0.90;;;26.80;77.70;;;;;;5046509;28;20597;-80
2021/07/12 08:40:42;;;;;;;1.70;1.00;;;25.20;81.20;;;;;;5051504;28;20207;-80
2021/07/12 08:43:08;;;;;;;1.20;0.90;;;26.00;80.60;;;;;;5043901;28;20700;-80
2021/07/12 08:45:34;;;;;;;1.10;0.80;;;25.90;81.00;;;;;;5035914;28;20179;-80
2021/07/12 08:48:00;;;;;;;2.50;0.70;;;26.80;79.20;;;;;;5054248;28;20174;-83
2021/07/12 08:50:27;;;;;;;1.00;0.70;;;26.90;77.70;;;;;;5044272;28;20646;-84
2021/07/12 08:52:53;;;;;;;0.97;0.87;;;26.70;78.00;;;;;;5055237;28;20405;-83
2021/07/12 08:55:20;;;;;;;1.10;0.90;;;26.70;78.30;;;;;;5048790;28;20418;-83
2021/07/12 08:58:10;;;;;;;1.50;0.93;;;26.90;78.20;;;;;;5065847;28;20417;-83
2021/07/12 09:00:45;;;;;;;1.30;0.80;;;26.80;80.10;;;;;;5046862;28;20458;-83
2021/07/12 09:03:20;;;;;;;0.90;0.80;;;26.60;79.70;;;;;;5028347;28;20769;-83
2021/07/12 09:05:54;;;;;;;1.33;0.90;;;27.70;75.90;;;;;;5036003;28;20469;-83
2021/07/12 09:08:56;;;;;;;1.23;1.03;;;28.50;79.60;;;;;;5032687;28;20418;-83
2021/07/12 09:11:38;;;;;;;6.20;0.70;;;28.40;75.70;;;;;;5002650;28;20466;-83
2021/07/12 09:14:07;;;;;;;1.40;0.80;;;28.10;72.50;;;;;;5032956;28;20422;-83
2021/07/12 09:16:38;;;;;;;1.20;1.07;;;27.80;75.50;;;;;;5054640;28;20418;-83
2021/07/12 09:19:16;;;;;;;1.33;0.90;;;28.30;77.10;;;;;;5035931;28;20413;-83
2021/07/12 09:21:46;;;;;;;2.27;1.10;;;28.20;72.50;;;;;;5035962;28;20839;-83
2021/07/12 09:24:30;;;;;;;1.10;0.90;;;27.30;74.80;;;;;;5036357;28;20788;-83
2021/07/12 09:26:59;;;;;;;0.93;0.80;;;26.80;77.70;;;;;;5053816;28;20413;-83
2021/07/12 09:29:37;;;;;;;1.37;0.80;;;27.00;78.30;;;;;;5036348;28;20418;-83
2021/07/12 09:32:07;;;;;;;0.90;0.70;;;27.20;81.80;;;;;;5035325;28;20503;-83
2021/07/12 09:34:33;;;;;;;1.10;0.90;;;27.60;75.60;;;;;;5036410;28;20421;-83
2021/07/12 09:36:58;;;;;;;2.03;1.10;;;26.90;76.60;;;;;;5035696;28;20416;-83
2021/07/12 09:39:35;;;;;;;1.70;0.77;;;27.20;77.40;;;;;;5053753;28;20182;-83
2021/07/12 09:42:07;;;;;;;1.30;0.80;;;26.90;75.80;;;;;;5036378;28;20562;-83
2021/07/12 09:44:34;;;;;;;1.30;0.80;;;26.80;77.50;;;;;;5055436;28;20410;-81
2021/07/12 09:47:09;;;;;;;2.60;0.90;;;26.60;78.20;;;;;;5053771;28;20422;-82
2021/07/12 09:49:36;;;;;;;1.00;0.80;;;26.60;81.00;;;;;;5036903;28;20391;-81
2021/07/12 09:52:05;;;;;;;1.10;0.90;;;26.60;78.30;;;;;;5018467;28;20557;-81
2021/07/12 09:54:36;;;;;;;1.00;0.80;;;26.90;77.20;;;;;;5039195;28;20419;-82
2021/07/12 09:57:09;;;;;;;2.00;0.90;;;25.70;81.00;;;;;;5037274;28;20421;-82
2021/07/12 09:59:35;;;;;;;1.30;0.80;;;25.00;83.30;;;;;;5018780;28;20441;-82
2021/07/12 10:02:02;;;;;;;2.80;1.10;;;24.70;83.80;;;;;;5036160;28;20449;-81
2021/07/12 10:04:28;;;;;;;1.33;0.80;;;24.80;84.10;;;;;;5021689;28;20429;-82
2021/07/12 10:06:54;;;;;;;2.77;0.87;;;25.40;81.80;;;;;;5038239;28;20413;-81
2021/07/12 10:09:22;;;;;;;1.30;0.90;;;25.10;84.70;;;;;;5020163;28;20430;-81
2021/07/12 10:11:49;;;;;;;1.30;1.00;;;25.70;82.70;;;;;;5035831;28;20821;-82
2021/07/12 10:14:16;;;;;;;1.13;0.80;;;26.10;84.60;;;;;;5036452;28;20422;-81
2021/07/12 10:16:42;;;;;;;1.27;1.13;;;26.10;79.00;;;;;;5018718;28;20433;-81
2021/07/12 10:19:08;;;;;;;2.10;1.00;;;25.80;81.60;;;;;;5034337;28;20422;-82
2021/07/12 10:21:46;;;;;;;1.23;1.13;;;25.50;82.50;;;;;;5056149;28;20187;-81
2021/07/12 10:24:12;;;;;;;1.20;1.03;;;25.30;83.70;;;;;;5040927;28;20226;-81
2021/07/12 10:26:53;;;;;;;2.07;1.00;;;25.80;81.70;;;;;;5057042;28;20496;-81
2021/07/12 10:29:26;;;;;;;1.63;1.53;;;25.60;81.20;;;;;;5040400;28;20423;-82
2021/07/12 10:32:03;;;;;;;3.37;1.00;;;25.20;83.20;;;;;;5034544;28;20509;-82
2021/07/12 10:34:41;;;;;;;2.70;1.07;;;24.30;85.70;;;;;;5049900;28;20434;-81
2021/07/12 10:37:17;;;;;;;1.80;0.90;;;23.80;86.30;;;;;;5035852;28;20398;-81
2021/07/12 10:40:08;;;;;;;2.37;0.70;;;24.10;90.50;;;;;;5036287;28;20449;-81
2021/07/12 10:42:45;;;;;;;1.27;1.17;;;24.40;88.90;;;;;;5035094;28;20488;-82
2021/07/12 10:45:29;;;;;;;2.13;1.10;;;25.00;89.90;;;;;;5043081;28;20414;-81
2021/07/12 10:47:58;;;;;;;1.67;1.10;;;25.00;88.00;;;;;;5017587;28;20415;-81
2021/07/12 10:50:38;;;;;;;1.10;1.00;;;26.30;83.30;;;;;;5016876;28;20406;-82
2021/07/12 10:53:27;;;;;;;2.80;0.80;;;26.10;81.10;;;;;;5037252;28;20476;-80
2021/07/12 10:55:58;;;;;;;2.20;1.30;;;25.90;88.40;;;;;;5026735;28;20488;-84
2021/07/12 10:58:25;;;;;;;2.50;0.90;;;26.60;88.10;;;;;;5034057;28;20937;-84
2021/07/12 11:00:52;;;;;;;1.70;1.03;;;26.80;80.50;;;;;;5014719;28;20981;-83
2021/07/12 11:03:36;;;;;;;3.13;1.07;;;25.90;80.50;;;;;;5032163;28;20415;-84
2021/07/12 11:06:11;;;;;;;1.50;1.40;;;26.10;82.00;;;;;;5014423;28;20418;-85
2021/07/12 11:08:54;;;;;;;3.93;1.97;;;27.10;88.30;;;;;;5051431;28;20428;-84
2021/07/12 11:11:20;;;;;;;3.40;2.30;;;27.50;80.90;;;;;;5033923;28;21041;-84
2021/07/12 11:14:00;;;;;;;2.20;2.00;;;27.10;84.20;;;;;;5033935;28;20527;-84
2021/07/12 11:16:35;;;;;;;1.80;1.70;;;26.60;81.70;;;;;;5052089;28;20253;-84
2021/07/12 11:19:17;;;;;;;1.60;1.50;;;26.50;84.50;;;;;;5042327;28;20409;-84
2021/07/12 11:21:43;;;;;;;3.83;2.13;;;27.30;79.70;;;;;;5034120;28;20937;-83
2021/07/12 11:24:11;;;;;;;4.20;3.80;;;27.70;81.00;;;;;;5033974;28;20463;-84
2021/07/12 11:26:40;;;;;;;5.93;5.33;;;27.00;82.90;;;;;;5020665;28;20263;-84
2021/07/12 11:29:19;;;;;;;6.03;5.43;;;26.20;83.90;;;;;;5037024;28;20509;-84
2021/07/12 11:31:49;;;;;;;6.80;5.40;;;25.70;85.80;;;;;;5033991;28;20456;-84
2021/07/12 11:34:31;;;;;;;10.70;6.67;;;25.30;87.20;;;;;;5051469;28;20422;-84
2021/07/12 11:37:16;;;;;;;9.10;6.60;;;24.80;90.30;;;;;;5015585;28;20504;-83
2021/07/12 11:39:47;;;;;;;8.90;7.17;;;24.00;91.70;;;;;;5031862;28;20411;-83
2021/07/12 11:42:21;;;;;;;8.90;6.10;;;24.20;90.10;;;;;;5036294;28;20466;-83
2021/07/12 11:44:56;;;;;;;7.00;5.77;;;23.90;90.60;;;;;;5043134;28;20900;-83
2021/07/12 11:47:29;;;;;;;13.70;5.30;;;23.60;94.00;;;;;;5018416;28;20776;-83
2021/07/12 11:50:04;;;;;;;8.63;4.70;;;23.50;92.80;;;;;;5039675;28;20411;-83
2021/07/12 11:52:30;;;;;;;4.90;4.40;;;23.20;96.30;;;;;;5034231;28;20522;-84
2021/07/12 11:54:58;;;;;;;4.70;4.30;;;23.60;92.50;;;;;;5055583;28;20773;-84
2021/07/12 11:57:24;;;;;;;4.03;3.63;;;24.20;93.60;;;;;;5025947;28;20214;-83
2021/07/12 11:59:49;;;;;;;9.10;3.67;;;24.50;90.90;;;;;;5026665;28;20468;-83
2021/07/12 12:02:16;;;;;;;4.03;3.70;;;24.40;90.60;;;;;;5023210;28;20226;-83
2021/07/12 12:04:51;;;;;;;4.97;4.47;;;24.40;92.70;;;;;;5012673;23;20233;-79
2021/07/12 12:07:22;;;;;;;3.30;3.00;;;25.00;90.60;;;;;;4982753;28;20436;-78
2021/07/12 12:10:00;;;;;;;3.37;2.80;;;25.30;86.60;;;;;;4994158;28;20413;-77
2021/07/12 12:12:53;;;;;;;4.73;3.30;;;25.10;87.00;;;;;;4995592;28;20970;-77
2021/07/12 12:15:23;;;;;;;3.30;3.00;;;25.00;88.50;;;;;;4982123;28;20960;-77
2021/07/12 12:18:05;;;;;;;5.33;3.67;;;25.00;89.00;;;;;;4992371;28;20419;-77
2021/07/12 12:20:34;;;;;;;6.67;3.80;;;25.00;88.60;;;;;;4987960;28;20422;-77
2021/07/12 12:23:18;;;;;;;6.10;3.57;;;24.50;89.30;;;;;;4971784;28;20428;-77
2021/07/12 12:25:47;;;;;;;4.93;4.40;;;24.20;89.60;;;;;;4988689;28;20428;-77
2021/07/12 12:28:22;;;;;;;5.23;3.90;;;24.30;90.50;;;;;;4985132;28;20404;-77
2021/07/12 12:30:49;;;;;;;4.70;4.10;;;23.70;91.30;;;;;;4986389;28;20468;-77
2021/07/12 12:33:14;;;;;;;6.57;4.20;;;24.00;89.90;;;;;;4967144;28;20461;-77
2021/07/12 12:35:41;;;;;;;3.50;3.10;;;24.30;90.10;;;;;;4984470;28;20739;-77
2021/07/12 12:38:12;;;;;;;4.33;3.63;;;24.30;89.60;;;;;;4987246;28;20271;-77
2021/07/12 12:40:38;;;;;;;8.20;3.50;;;24.40;89.60;;;;;;4993644;28;20806;-77
2021/07/12 12:43:13;;;;;;;4.60;3.40;;;24.70;90.00;;;;;;4994775;28;20451;-78
2021/07/12 12:45:54;;;;;;;6.37;3.90;;;25.00;88.90;;;;;;4979999;28;20920;-78
2021/07/12 12:48:40;;;;;;;4.23;3.20;;;25.20;88.20;;;;;;4975885;28;20440;-77
2021/07/12 12:51:31;;;;;;;7.20;2.93;;;25.30;87.80;;;;;;4978240;28;20464;-77
2021/07/12 12:54:06;;;;;;;4.10;3.40;;;25.20;87.60;;;;;;4988976;28;20523;-77
2021/07/12 12:56:32;;;;;;;3.27;2.73;;;25.00;88.70;;;;;;4994885;28;20412;-77
2021/07/12 12:59:04;;;;;;;4.50;3.07;;;25.00;86.00;;;;;;4993405;28;20443;-77
2021/07/12 13:01:32;;;;;;;3.27;2.97;;;25.10;86.70;;;;;;4993080;28;20416;-77
2021/07/12 13:04:04;;;;;;;4.63;3.67;;;24.90;86.10;;;;;;4977897;28;20455;-77
2021/07/12 13:06:44;;;;;;;3.97;3.47;;;25.40;87.40;;;;;;4995151;28;20413;-77
2021/07/12 13:09:13;;;;;;;3.93;3.30;;;26.40;86.00;;;;;;4994247;28;20904;-78
2021/07/12 13:11:42;;;;;;;6.60;3.10;;;27.00;80.70;;;;;;4985542;28;20522;-77
2021/07/12 13:14:07;;;;;;;4.60;3.30;;;27.90;83.80;;;;;;4985821;28;20429;-77
2021/07/12 13:16:35;;;;;;;6.30;3.20;;;27.80;79.40;;;;;;4984347;28;20490;-77
2021/07/12 13:19:00;;;;;;;4.07;3.37;;;27.80;78.90;;;;;;4979661;28;20173;-77
2021/07/12 13:21:49;;;;;;;3.90;3.30;;;27.80;80.40;;;;;;4987717;28;20785;-78
2021/07/12 13:24:15;;;;;;;5.83;3.90;;;27.80;78.50;;;;;;4994176;28;20673;-77
2021/07/12 13:26:40;;;;;;;4.50;3.33;;;26.90;79.60;;;;;;4976866;28;20443;-77
2021/07/12 13:29:06;;;;;;;9.00;3.20;;;26.40;78.60;;;;;;4974319;28;20511;-77
2021/07/12 13:31:31;;;;;;;6.73;3.30;;;27.00;79.30;;;;;;4974918;28;20727;-77
2021/07/12 13:33:57;;;;;;;4.50;3.33;;;27.60;78.30;;;;;;4974859;28;20654;-77
2021/07/12 13:36:22;;;;;;;3.97;3.10;;;28.00;76.50;;;;;;4974912;28;20224;-78
2021/07/12 13:38:48;;;;;;;4.57;3.20;;;27.90;78.30;;;;;;4974105;28;20653;-77
2021/07/12 13:41:13;;;;;;;5.20;3.63;;;28.00;78.70;;;;;;4974934;28;20224;-78
2021/07/12 13:43:39;;;;;;;6.57;3.47;;;28.00;77.50;;;;;;4974521;28;20203;-77
2021/07/12 13:46:04;;;;;;;4.07;3.67;;;28.30;75.50;;;;;;4977337;28;20187;-77
2021/07/12 13:48:30;;;;;;;7.87;3.20;;;28.00;74.40;;;;;;4976706;28;20228;-77
2021/07/12 13:50:56;;;;;;;4.30;3.63;;;27.80;77.80;;;;;;4973981;28;20205;-76
2021/07/12 13:53:23;;;;;;;4.07;2.97;;;27.80;75.70;;;;;;4977026;28;20184;-76
2021/07/12 13:55:50;;;;;;;5.10;4.13;;;27.30;76.80;;;;;;4962884;28;20591;-76
2021/07/12 13:58:15;;;;;;;4.60;4.20;;;27.40;79.70;;;;;;4977142;28;20428;-77
2021/07/12 14:00:41;;;;;;;8.87;4.33;;;27.10;79.70;;;;;;4972972;28;20417;-75
2021/07/12 14:03:07;;;;;;;5.07;3.70;;;27.40;77.60;;;;;;4984607;28;20242;-76
2021/07/12 14:05:33;;;;;;;5.93;3.50;;;27.20;78.60;;;;;;4985634;28;20235;-76
2021/07/12 14:07:59;;;;;;;5.27;3.97;;;26.80;78.30;;;;;;4987283;28;20653;-76
2021/07/12 14:10:24;;;;;;;7.70;3.93;;;26.60;79.50;;;;;;4974153;28;20432;-75
2021/07/12 14:12:51;;;;;;;4.30;3.57;;;27.00;78.60;;;;;;4992702;28;20173;-75
2021/07/12 14:15:19;;;;;;;4.00;3.60;;;27.00;78.00;;;;;;4978416;28;20769;-75
2021/07/12 14:17:44;;;;;;;3.93;3.60;;;26.50;79.50;;;;;;4974626;28;20513;-75
2021/07/12 14:20:10;;;;;;;11.30;3.93;;;26.20;80.80;;;;;;4974163;28;21009;-75
2021/07/12 14:22:37;;;;;;;4.77;4.37;;;26.20;83.20;;;;;;4973999;28;20728;-76
2021/07/12 14:25:04;;;;;;;5.50;3.70;;;25.50;82.00;;;;;;4973841;28;20421;-75
2021/07/12 14:27:36;;;;;;;5.03;3.70;;;25.00;83.20;;;;;;5068681;28;21151;-76
2021/07/12 14:30:04;;;;;;;3.63;3.30;;;24.50;84.70;;;;;;5068498;28;20413;-76
2021/07/12 14:32:30;;;;;;;5.83;3.83;;;24.60;85.40;;;;;;5068983;28;20177;-76
2021/07/12 14:34:55;;;;;;;10.37;3.80;;;24.80;83.20;;;;;;5068914;28;20508;-76
2021/07/12 14:37:22;;;;;;;4.77;4.03;;;24.40;83.60;;;;;;5068841;28;20249;-76
2021/07/12 14:39:47;;;;;;;12.60;6.83;;;24.40;84.90;;;;;;5067836;28;20202;-76
2021/07/12 14:42:13;;;;;;;5.80;4.30;;;24.60;84.60;;;;;;5069010;28;20460;-76
2021/07/12 14:44:38;;;;;;;6.90;4.03;;;25.00;85.40;;;;;;5068863;28;20750;-76
2021/07/12 14:47:06;;;;;;;4.30;3.80;;;25.30;81.60;;;;;;5068521;28;20263;-76
2021/07/12 14:49:33;;;;;;;8.07;5.40;;;25.30;81.10;;;;;;5069687;28;20210;-76
2021/07/12 14:51:58;;;;;;;12.43;5.07;;;25.60;81.70;;;;;;5069991;28;20626;-77
2021/07/12 14:54:24;;;;;;;4.73;4.13;;;25.90;82.90;;;;;;5069685;28;20963;-76
2021/07/12 14:56:51;;;;;;;4.10;3.70;;;26.20;80.50;;;;;;5069076;28;20231;-76
2021/07/12 14:59:16;;;;;;;5.73;3.80;;;26.30;81.50;;;;;;5068139;28;20446;-76
2021/07/12 15:01:42;;;;;;;4.67;4.00;;;26.50;78.80;;;;;;5069802;28;20413;-76
2021/07/12 15:04:07;;;;;;;5.70;4.00;;;26.20;79.70;;;;;;5068889;28;20678;-75
2021/07/12 15:06:33;;;;;;;4.10;3.70;;;25.70;78.50;;;;;;5069308;28;20228;-76
2021/07/12 15:08:58;;;;;;;8.63;4.13;;;25.90;79.60;;;;;;5068639;28;20658;-76
2021/07/12 15:11:24;;;;;;;5.90;3.50;;;26.20;78.80;;;;;;5069104;28;20203;-76
2021/07/12 15:13:50;;;;;;;8.93;4.50;;;26.10;77.70;;;;;;5068705;28;20187;-76
2021/07/12 15:16:15;;;;;;;7.03;3.73;;;26.00;79.90;;;;;;5068417;28;20236;-76
2021/07/12 15:18:41;;;;;;;3.70;3.40;;;26.30;78.40;;;;;;5067607;28;20892;-76
2021/07/12 15:21:07;;;;;;;4.93;3.60;;;26.40;78.90;;;;;;5067861;28;20174;-77
2021/07/12 15:23:32;;;;;;;5.27;3.77;;;26.40;77.90;;;;;;5067472;28;20166;-77
2021/07/12 15:25:58;;;;;;;10.67;3.20;;;26.60;76.30;;;;;;5067950;28;20209;-76
2021/07/12 15:28:23;;;;;;;4.43;3.53;;;26.30;79.30;;;;;;5067502;28;20175;-76
2021/07/12 15:30:50;;;;;;;4.67;3.50;;;26.30;78.90;;;;;;5068059;28;20170;-76
2021/07/12 15:33:15;;;;;;;4.80;4.40;;;26.40;79.30;;;;;;5067798;28;20170;-76
2021/07/12 15:35:41;;;;;;;4.10;3.70;;;26.60;79.40;;;;;;5067895;28;20436;-77
2021/07/12 15:38:07;;;;;;;5.30;4.30;;;26.40;78.40;;;;;;5058503;28;20171;-77
2021/07/12 15:40:33;;;;;;;3.30;3.10;;;26.10;80.20;;;;;;5054738;28;20785;-75
2021/07/12 15:42:58;;;;;;;3.37;3.07;;;25.60;81.90;;;;;;5054689;28;20175;-75
2021/07/12 15:45:24;;;;;;;4.23;3.23;;;25.50;79.90;;;;;;5054250;28;20274;-75
2021/07/12 15:47:49;;;;;;;3.57;3.20;;;25.50;80.60;;;;;;5053894;28;20183;-76
2021/07/12 15:50:15;;;;;;;4.73;3.70;;;25.60;80.90;;;;;;5054345;28;20253;-75
2021/07/12 15:52:41;;;;;;;3.13;2.83;;;25.60;80.20;;;;;;5054425;28;20557;-75
2021/07/12 15:55:08;;;;;;;4.77;3.70;;;26.00;79.60;;;;;;5046315;28;20209;-75
2021/07/12 15:57:34;;;;;;;4.73;3.20;;;26.00;80.20;;;;;;5033667;28;20410;-76
2021/07/12 16:00:00;;;;;;;4.37;3.97;;;25.60;80.70;;;;;;5033950;28;20844;-76
2021/07/12 16:02:26;;;;;;;5.07;2.83;;;25.20;83.60;;;;;;5034479;28;20513;-76
2021/07/12 16:04:52;;;;;;;4.23;3.83;;;25.10;82.40;;;;;;5034119;28;20218;-77
2021/07/12 16:07:17;;;;;;;5.20;3.13;;;25.40;82.20;;;;;;5033500;28;20238;-75
2021/07/12 16:09:43;;;;;;;4.63;3.27;;;25.60;82.90;;;;;;5034217;28;20171;-75
2021/07/12 16:12:09;;;;;;;8.43;3.30;;;25.40;82.30;;;;;;5033973;28;20210;-76
2021/07/12 16:14:35;;;;;;;6.30;2.90;;;25.30;83.70;;;;;;5032912;28;20187;-76
2021/07/12 16:17:02;;;;;;;4.93;3.30;;;25.20;84.10;;;;;;5033162;28;20501;-76
2021/07/12 16:19:28;;;;;;;6.47;3.10;;;25.20;84.40;;;;;;5033879;28;20422;-75
2021/07/12 16:21:55;;;;;;;5.03;3.27;;;24.80;86.10;;;;;;5032673;28;20419;-76
2021/07/12 16:24:23;;;;;;;7.70;2.90;;;24.60;85.60;;;;;;5033661;28;20535;-76
2021/07/12 16:26:50;;;;;;;11.13;3.40;;;24.30;86.60;;;;;;5033315;28;20519;-76
2021/07/12 16:29:16;;;;;;;3.43;2.60;;;24.30;88.00;;;;;;5033521;28;20898;-75
2021/07/12 16:31:42;;;;;;;6.10;2.90;;;24.50;88.10;;;;;;5033786;28;20455;-76
2021/07/12 16:34:08;;;;;;;4.77;2.80;;;24.70;87.70;;;;;;5032573;28;20521;-75
2021/07/12 16:36:34;;;;;;;6.07;2.60;;;24.80;86.80;;;;;;5033516;28;20263;-76
2021/07/12 16:38:59;;;;;;;4.40;3.10;;;24.70;87.30;;;;;;5033007;28;21243;-75
2021/07/12 16:41:27;;;;;;;9.40;2.80;;;24.80;86.80;;;;;;5033707;28;20179;-76
2021/07/12 16:43:53;;;;;;;2.73;2.30;;;24.60;86.80;;;;;;5033462;28;20188;-75
2021/07/12 16:46:19;;;;;;;2.73;2.30;;;24.40;88.00;;;;;;5032446;28;20987;-75
2021/07/12 16:48:44;;;;;;;3.53;2.20;;;24.40;87.40;;;;;;5037310;28;20547;-75
2021/07/12 16:51:09;;;;;;;3.63;2.50;;;24.40;88.40;;;;;;5034527;28;20706;-75